Time;durP1;ratioP1;P1;durP2;ratioP2;P2;SDS_P1;SDS_P2;PMS_P1;PMS_P2;Temp;Humidity;BMP_temperature;BMP_pressure;BME280_temperature;BME280_humidity;BME280_pressure;Samples;Min_cycle;Max_cycle;Signal;HPM_P1;HPM_P2
2022/03/28 00:01:54;;;;;;;62.75;28.27;;;;;;;;;;5054494;28;20025;-56
2022/03/28 00:04:21;;;;;;;61.42;27.25;;;;;;;;;;5053708;28;20107;-54
2022/03/28 00:06:47;;;;;;;55.85;26.67;;;;;;;;;;5053558;28;20039;-56
2022/03/28 00:09:13;;;;;;;54.15;22.42;;;;;;;;;;5053635;28;20029;-57
2022/03/28 00:11:39;;;;;;;40.78;20.27;;;;;;;;;;5053293;28;20493;-56
2022/03/28 00:14:06;;;;;;;40.50;19.88;;;;;;;;;;5053663;28;20029;-57
2022/03/28 00:16:32;;;;;;;47.72;23.70;;;;;;;;;;5053493;28;20024;-56
2022/03/28 00:18:58;;;;;;;41.35;19.88;;;;;;;;;;5053425;28;20447;-55
2022/03/28 00:21:25;;;;;;;37.78;19.00;;;;;;;;;;5053767;28;20021;-54
2022/03/28 00:23:51;;;;;;;40.75;19.25;;;;;;;;;;5053696;28;20030;-56
2022/03/28 00:26:18;;;;;;;45.88;20.83;;;;;;;;;;5053170;28;20060;-54
2022/03/28 00:28:44;;;;;;;49.65;22.20;;;;;;;;;;5053339;28;20386;-54
2022/03/28 00:31:11;;;;;;;46.13;21.10;;;;;;;;;;5053327;28;20055;-56
2022/03/28 00:33:37;;;;;;;47.40;21.85;;;;;;;;;;5052036;28;20112;-53
2022/03/28 00:36:03;;;;;;;61.63;30.02;;;;;;;;;;5053541;28;20087;-53
2022/03/28 00:38:29;;;;;;;70.63;35.88;;;;;;;;;;5052908;28;20418;-55
2022/03/28 00:40:55;;;;;;;80.55;38.08;;;;;;;;;;5053657;28;20017;-53
2022/03/28 00:43:22;;;;;;;74.28;33.05;;;;;;;;;;5053508;28;20497;-55
2022/03/28 00:45:48;;;;;;;59.72;29.48;;;;;;;;;;5053184;28;20025;-56
2022/03/28 00:48:14;;;;;;;61.67;25.88;;;;;;;;;;5053444;28;20120;-57
2022/03/28 00:50:41;;;;;;;431.60;152.20;;;;;;;;;;5053683;28;20021;-55
2022/03/28 00:53:10;;;;;;;95.05;42.63;;;;;;;;;;5053041;28;20191;-54
2022/03/28 00:55:36;;;;;;;48.92;23.77;;;;;;;;;;5053044;28;20025;-51
2022/03/28 00:58:02;;;;;;;40.25;20.35;;;;;;;;;;5053144;28;20031;-54
2022/03/28 01:00:29;;;;;;;64.88;29.75;;;;;;;;;;5052883;28;20047;-54
2022/03/28 01:02:57;;;;;;;43.30;21.52;;;;;;;;;;5053075;28;20024;-57
2022/03/28 01:05:23;;;;;;;38.65;19.90;;;;;;;;;;5053597;28;20358;-55
2022/03/28 01:07:50;;;;;;;38.90;19.48;;;;;;;;;;5052869;28;20060;-55
2022/03/28 01:10:16;;;;;;;34.53;17.27;;;;;;;;;;5052940;28;20486;-52
2022/03/28 01:12:43;;;;;;;37.17;18.55;;;;;;;;;;5053235;28;20043;-53
2022/03/28 01:15:14;;;;;;;32.90;16.58;;;;;;;;;;5052994;28;20036;-56
2022/03/28 01:20:28;;;;;;;29.05;14.70;;;;;;;;;;5052658;28;20040;-55
2022/03/28 01:22:54;;;;;;;23.33;12.10;;;;;;;;;;5052841;28;20095;-55
2022/03/28 01:25:22;;;;;;;18.70;8.88;;;;;;;;;;5052793;28;20021;-55
2022/03/28 01:27:48;;;;;;;16.40;8.00;;;;;;;;;;5052563;28;20053;-57
2022/03/28 01:30:14;;;;;;;15.82;8.85;;;;;;;;;;5053074;28;20454;-56
2022/03/28 01:32:40;;;;;;;18.30;10.63;;;;;;;;;;5053068;28;20523;-55
2022/03/28 01:35:07;;;;;;;22.92;10.73;;;;;;;;;;5052720;28;20122;-54
2022/03/28 01:37:33;;;;;;;16.33;8.93;;;;;;;;;;5053305;28;20029;-56
2022/03/28 01:40:01;;;;;;;16.17;7.97;;;;;;;;;;5052683;28;20031;-55
2022/03/28 01:42:27;;;;;;;16.70;8.63;;;;;;;;;;5052650;28;20021;-57
2022/03/28 01:44:53;;;;;;;16.77;8.40;;;;;;;;;;5052663;28;20013;-56
2022/03/28 01:47:19;;;;;;;14.00;8.20;;;;;;;;;;5051628;28;20389;-53
2022/03/28 01:49:45;;;;;;;15.88;9.10;;;;;;;;;;5052622;28;20151;-53
2022/03/28 01:52:12;;;;;;;26.45;13.15;;;;;;;;;;5054180;28;20112;-52
2022/03/28 01:54:38;;;;;;;36.80;19.10;;;;;;;;;;5056451;28;20413;-50
2022/03/28 01:57:08;;;;;;;49.33;22.23;;;;;;;;;;5055002;28;20021;-52
2022/03/28 01:59:34;;;;;;;51.30;25.33;;;;;;;;;;5056200;28;20033;-56
2022/03/28 02:02:01;;;;;;;51.53;23.05;;;;;;;;;;5056432;28;20033;-55
2022/03/28 02:04:27;;;;;;;49.35;23.20;;;;;;;;;;5056240;28;20025;-51
2022/03/28 02:06:53;;;;;;;49.10;23.63;;;;;;;;;;5056215;28;20070;-50
2022/03/28 02:09:19;;;;;;;48.00;23.33;;;;;;;;;;5055804;28;20032;-55
2022/03/28 02:11:45;;;;;;;54.75;24.95;;;;;;;;;;5056071;28;20031;-53
2022/03/28 02:14:11;;;;;;;44.42;22.15;;;;;;;;;;5056078;28;20096;-54
2022/03/28 02:16:37;;;;;;;45.45;22.35;;;;;;;;;;5055742;28;20512;-50
2022/03/28 02:19:04;;;;;;;49.33;22.52;;;;;;;;;;5056293;28;20032;-51
2022/03/28 02:21:30;;;;;;;50.50;24.13;;;;;;;;;;5056212;28;20025;-54
2022/03/28 02:23:56;;;;;;;42.70;21.25;;;;;;;;;;5055576;28;20108;-59
2022/03/28 02:26:22;;;;;;;43.15;21.20;;;;;;;;;;5055576;28;20041;-53
2022/03/28 02:28:48;;;;;;;40.72;20.48;;;;;;;;;;5054463;28;20041;-55
2022/03/28 02:31:14;;;;;;;47.75;22.20;;;;;;;;;;5055176;28;20055;-51
2022/03/28 02:33:40;;;;;;;36.25;18.17;;;;;;;;;;5055744;28;20025;-53
2022/03/28 02:36:07;;;;;;;36.88;18.13;;;;;;;;;;5055400;28;20389;-51
2022/03/28 02:38:33;;;;;;;32.08;15.23;;;;;;;;;;5055266;28;20501;-49
2022/03/28 02:41:00;;;;;;;29.55;15.15;;;;;;;;;;5055330;28;20025;-50
2022/03/28 02:43:26;;;;;;;27.05;14.48;;;;;;;;;;5055522;28;20017;-50
2022/03/28 02:45:52;;;;;;;29.27;15.07;;;;;;;;;;5053915;28;20025;-56
2022/03/28 02:48:18;;;;;;;30.50;14.90;;;;;;;;;;5055362;28;20044;-54
2022/03/28 02:50:45;;;;;;;33.22;17.95;;;;;;;;;;5055382;28;20029;-52
2022/03/28 02:53:11;;;;;;;34.95;17.63;;;;;;;;;;5055115;28;20179;-50
2022/03/28 02:55:38;;;;;;;42.45;21.65;;;;;;;;;;5055328;28;20056;-50
2022/03/28 02:58:04;;;;;;;43.35;24.45;;;;;;;;;;5055547;28;20025;-49
2022/03/28 03:00:30;;;;;;;41.78;24.77;;;;;;;;;;5054672;28;20025;-48
2022/03/28 03:02:57;;;;;;;45.58;24.55;;;;;;;;;;5055170;28;20100;-50
2022/03/28 03:05:23;;;;;;;41.20;22.05;;;;;;;;;;5054469;28;20104;-50
2022/03/28 03:07:50;;;;;;;42.63;21.30;;;;;;;;;;5054847;28;20021;-49
2022/03/28 03:10:16;;;;;;;34.50;17.38;;;;;;;;;;5053764;28;20032;-56
2022/03/28 03:12:42;;;;;;;39.50;17.83;;;;;;;;;;5054393;28;20025;-51
2022/03/28 03:15:08;;;;;;;43.45;18.83;;;;;;;;;;5054936;28;20021;-53
2022/03/28 03:17:36;;;;;;;30.13;16.42;;;;;;;;;;5054927;28;20029;-55
2022/03/28 03:20:03;;;;;;;34.10;17.10;;;;;;;;;;5054553;28;20032;-53
2022/03/28 03:22:30;;;;;;;39.00;17.10;;;;;;;;;;5054782;28;20021;-56
2022/03/28 03:25:03;;;;;;;39.25;17.95;;;;;;;;;;5053675;28;20021;-58
2022/03/28 03:27:30;;;;;;;35.72;18.30;;;;;;;;;;5053232;28;20049;-56
2022/03/28 03:29:56;;;;;;;40.67;19.52;;;;;;;;;;5054159;28;20032;-51
2022/03/28 03:32:23;;;;;;;41.03;19.45;;;;;;;;;;5054118;28;20017;-53
2022/03/28 03:34:51;;;;;;;40.90;20.33;;;;;;;;;;5053770;28;20029;-51
2022/03/28 03:37:17;;;;;;;44.90;20.48;;;;;;;;;;5052992;28;20556;-52
2022/03/28 03:39:44;;;;;;;40.78;20.20;;;;;;;;;;5052334;28;20470;-49
2022/03/28 03:42:11;;;;;;;43.65;20.17;;;;;;;;;;5052907;28;20021;-55
2022/03/28 03:44:37;;;;;;;42.15;18.85;;;;;;;;;;5054100;28;20369;-52
2022/03/28 03:47:03;;;;;;;38.28;20.10;;;;;;;;;;5054129;28;20025;-54
2022/03/28 03:49:29;;;;;;;42.88;20.10;;;;;;;;;;5053534;28;20535;-57
2022/03/28 03:51:56;;;;;;;40.35;19.92;;;;;;;;;;5053152;28;20485;-54
2022/03/28 03:54:22;;;;;;;43.67;19.65;;;;;;;;;;5052920;28;20021;-55
2022/03/28 03:56:48;;;;;;;97.18;37.72;;;;;;;;;;5054353;28;20059;-56
2022/03/28 03:59:14;;;;;;;82.70;38.85;;;;;;;;;;5054087;28;20017;-54
2022/03/28 04:01:40;;;;;;;77.25;32.33;;;;;;;;;;5053957;28;20029;-55
2022/03/28 04:04:07;;;;;;;58.78;26.45;;;;;;;;;;5053748;28;20027;-55
2022/03/28 04:06:34;;;;;;;70.72;30.75;;;;;;;;;;5053568;28;20025;-51
2022/03/28 04:09:00;;;;;;;59.90;29.27;;;;;;;;;;5053280;28;20040;-49
2022/03/28 04:11:26;;;;;;;62.70;32.60;;;;;;;;;;5053765;28;20052;-54
2022/03/28 04:13:57;;;;;;;63.38;30.73;;;;;;;;;;5053243;28;20021;-52
2022/03/28 04:16:23;;;;;;;71.35;30.75;;;;;;;;;;5053661;28;20411;-50
2022/03/28 04:18:50;;;;;;;66.15;31.08;;;;;;;;;;5053645;28;20035;-50
2022/03/28 04:21:16;;;;;;;62.38;31.77;;;;;;;;;;5053697;28;20112;-58
2022/03/28 04:23:42;;;;;;;68.88;31.63;;;;;;;;;;5053486;28;20028;-55
2022/03/28 04:26:08;;;;;;;60.97;31.08;;;;;;;;;;5053189;28;20053;-55
2022/03/28 04:28:34;;;;;;;93.70;37.97;;;;;;;;;;5053232;28;20044;-53
2022/03/28 04:31:00;;;;;;;108.47;44.92;;;;;;;;;;5052971;28;20025;-54
2022/03/28 04:33:27;;;;;;;72.68;33.00;;;;;;;;;;5053397;28;20021;-56
2022/03/28 04:35:53;;;;;;;65.32;30.50;;;;;;;;;;5053437;28;20509;-54
2022/03/28 04:38:19;;;;;;;57.42;27.92;;;;;;;;;;5052891;28;20493;-55
2022/03/28 04:40:45;;;;;;;55.58;25.45;;;;;;;;;;5053367;28;20370;-54
2022/03/28 04:43:12;;;;;;;55.22;25.30;;;;;;;;;;5053069;28;20087;-53
2022/03/28 04:45:38;;;;;;;65.80;26.88;;;;;;;;;;5052462;28;20029;-53
2022/03/28 04:48:05;;;;;;;58.13;25.88;;;;;;;;;;5052986;28;20067;-52
2022/03/28 04:50:31;;;;;;;53.03;26.98;;;;;;;;;;5052700;28;20025;-52
2022/03/28 04:52:57;;;;;;;63.00;31.98;;;;;;;;;;5053265;28;20104;-57
2022/03/28 04:55:23;;;;;;;70.22;33.78;;;;;;;;;;5053137;28;20052;-57
2022/03/28 04:57:50;;;;;;;96.13;47.25;;;;;;;;;;5052916;28;20390;-53
2022/03/28 05:00:17;;;;;;;88.57;42.80;;;;;;;;;;5053109;28;20519;-57
2022/03/28 05:02:43;;;;;;;82.38;38.55;;;;;;;;;;5053135;28;20033;-54
2022/03/28 05:05:10;;;;;;;88.88;43.03;;;;;;;;;;5052908;28;20451;-54
2022/03/28 05:07:36;;;;;;;95.97;41.72;;;;;;;;;;5053198;28;20033;-51
2022/03/28 05:10:05;;;;;;;75.47;37.03;;;;;;;;;;5053246;28;20017;-58
2022/03/28 05:12:31;;;;;;;55.03;27.13;;;;;;;;;;5052840;28;20405;-51
2022/03/28 05:14:58;;;;;;;45.22;22.52;;;;;;;;;;5052982;28;20029;-53
2022/03/28 05:17:25;;;;;;;54.55;23.02;;;;;;;;;;5053163;28;20029;-53
2022/03/28 05:19:51;;;;;;;73.10;38.03;;;;;;;;;;5052546;28;20025;-56
2022/03/28 05:22:18;;;;;;;78.78;36.22;;;;;;;;;;5053160;28;20056;-55
2022/03/28 05:24:44;;;;;;;63.25;32.83;;;;;;;;;;5053093;28;20025;-54
2022/03/28 05:27:10;;;;;;;61.83;30.40;;;;;;;;;;5055509;28;20056;-52
2022/03/28 05:29:36;;;;;;;69.32;31.70;;;;;;;;;;5056827;28;20508;-55
2022/03/28 05:32:03;;;;;;;68.50;31.50;;;;;;;;;;5057148;28;20028;-55
2022/03/28 05:34:30;;;;;;;54.20;28.45;;;;;;;;;;5056474;28;20017;-53
2022/03/28 05:37:00;;;;;;;54.78;26.38;;;;;;;;;;5056673;28;20017;-57
2022/03/28 05:39:27;;;;;;;55.00;24.55;;;;;;;;;;5056439;28;20032;-56
2022/03/28 05:41:53;;;;;;;38.05;20.23;;;;;;;;;;5056961;28;20017;-55
2022/03/28 05:44:20;;;;;;;46.35;21.60;;;;;;;;;;5056663;28;20143;-51
2022/03/28 05:46:48;;;;;;;41.88;22.10;;;;;;;;;;5056020;28;20028;-49
2022/03/28 05:49:14;;;;;;;42.50;21.60;;;;;;;;;;5056428;28;20071;-51
2022/03/28 05:51:41;;;;;;;53.33;23.27;;;;;;;;;;5056556;28;20029;-52
2022/03/28 05:54:07;;;;;;;49.35;22.58;;;;;;;;;;5056137;28;20063;-49
2022/03/28 05:56:33;;;;;;;45.47;23.58;;;;;;;;;;5055860;28;20028;-55
2022/03/28 05:59:02;;;;;;;59.25;24.83;;;;;;;;;;5056082;28;20036;-57
2022/03/28 06:01:29;;;;;;;61.38;26.20;;;;;;;;;;5055263;28;20067;-56
2022/03/28 06:03:55;;;;;;;79.72;28.60;;;;;;;;;;5055737;28;20515;-55
2022/03/28 06:06:21;;;;;;;60.40;28.77;;;;;;;;;;5055906;28;20100;-51
2022/03/28 06:08:47;;;;;;;67.20;27.95;;;;;;;;;;5055080;28;20036;-56
2022/03/28 06:11:13;;;;;;;58.38;26.52;;;;;;;;;;5055112;28;20412;-55
2022/03/28 06:13:42;;;;;;;57.42;25.98;;;;;;;;;;5055942;28;20032;-57
2022/03/28 06:16:08;;;;;;;56.33;25.70;;;;;;;;;;5055631;28;20163;-54
2022/03/28 06:18:34;;;;;;;51.70;24.60;;;;;;;;;;5056242;28;20108;-58
2022/03/28 06:21:01;;;;;;;42.53;23.38;;;;;;;;;;5056071;28;20092;-54
2022/03/28 06:23:27;;;;;;;38.38;21.10;;;;;;;;;;5055348;28;20028;-52
2022/03/28 06:25:53;;;;;;;42.90;21.25;;;;;;;;;;5055689;28;20021;-52
2022/03/28 06:28:19;;;;;;;40.63;20.77;;;;;;;;;;5055590;28;20028;-55
2022/03/28 06:30:46;;;;;;;35.80;20.02;;;;;;;;;;5055810;28;20060;-57
2022/03/28 06:33:12;;;;;;;34.88;17.85;;;;;;;;;;5055464;28;20029;-52
2022/03/28 06:35:40;;;;;;;30.23;15.40;;;;;;;;;;5055135;28;20356;-52
2022/03/28 06:38:06;;;;;;;30.50;16.48;;;;;;;;;;5055186;28;20066;-51
2022/03/28 06:40:33;;;;;;;33.72;17.33;;;;;;;;;;5055537;28;20021;-53
2022/03/28 06:42:59;;;;;;;32.42;17.00;;;;;;;;;;5055513;28;20429;-50
2022/03/28 06:45:26;;;;;;;32.65;16.67;;;;;;;;;;5055488;28;20027;-56
2022/03/28 06:47:52;;;;;;;30.17;18.27;;;;;;;;;;5055637;28;20027;-54
2022/03/28 06:50:19;;;;;;;39.80;23.55;;;;;;;;;;5055489;28;20036;-54
2022/03/28 06:52:46;;;;;;;31.25;18.35;;;;;;;;;;5055009;28;20048;-56
2022/03/28 06:55:12;;;;;;;37.58;19.65;;;;;;;;;;5055005;28;20535;-53
2022/03/28 06:57:39;;;;;;;42.53;20.98;;;;;;;;;;5054996;28;20348;-55
2022/03/28 07:00:06;;;;;;;32.47;19.42;;;;;;;;;;5055524;28;20055;-55
2022/03/28 07:02:32;;;;;;;36.92;18.55;;;;;;;;;;5054853;28;20428;-57
2022/03/28 07:04:58;;;;;;;32.33;18.83;;;;;;;;;;5054783;28;20381;-53
2022/03/28 07:07:25;;;;;;;35.28;17.90;;;;;;;;;;5055245;28;20024;-53
2022/03/28 07:09:51;;;;;;;32.75;18.77;;;;;;;;;;5054950;28;20029;-65
2022/03/28 07:12:17;;;;;;;30.13;18.45;;;;;;;;;;5054391;28;20025;-53
2022/03/28 07:14:45;;;;;;;31.65;18.75;;;;;;;;;;5055191;28;20458;-51
2022/03/28 07:17:11;;;;;;;33.55;19.45;;;;;;;;;;5055099;28;20112;-53
2022/03/28 07:19:37;;;;;;;33.00;19.38;;;;;;;;;;5054727;28;20450;-49
2022/03/28 07:22:04;;;;;;;30.15;18.10;;;;;;;;;;5054696;28;20021;-56
2022/03/28 07:24:30;;;;;;;31.98;18.10;;;;;;;;;;5054467;28;20035;-50
2022/03/28 07:26:56;;;;;;;40.22;19.92;;;;;;;;;;5054844;28;20037;-55
2022/03/28 07:29:23;;;;;;;43.90;20.10;;;;;;;;;;5053366;28;20029;-50
2022/03/28 07:31:49;;;;;;;41.38;19.63;;;;;;;;;;5054785;28;20033;-53
2022/03/28 07:34:30;;;;;;;37.67;19.02;;;;;;;;;;5054449;28;20028;-53
2022/03/28 07:36:56;;;;;;;;;;;;;;;;;;5054669;28;20029;-51
2022/03/28 07:39:23;;;;;;;42.15;17.65;;;;;;;;;;5054195;28;19911;-53
2022/03/28 07:41:50;;;;;;;38.28;17.50;;;;;;;;;;5054837;28;20066;-50
2022/03/28 07:44:16;;;;;;;29.92;17.58;;;;;;;;;;5054145;28;20025;-53
2022/03/28 07:46:44;;;;;;;38.42;17.67;;;;;;;;;;5053651;28;20612;-54
2022/03/28 07:49:11;;;;;;;25.77;15.02;;;;;;;;;;5052993;28;20538;-56
2022/03/28 07:51:37;;;;;;;24.17;11.70;;;;;;;;;;5054459;28;20343;-58
2022/03/28 07:54:04;;;;;;;23.83;12.57;;;;;;;;;;5053685;28;20029;-63
2022/03/28 07:56:31;;;;;;;29.45;12.38;;;;;;;;;;5054386;28;20373;-57
2022/03/28 07:58:58;;;;;;;26.67;12.48;;;;;;;;;;5053752;28;20496;-57
2022/03/28 08:01:24;;;;;;;16.88;11.27;;;;;;;;;;5053794;28;20107;-55
2022/03/28 08:03:50;;;;;;;20.33;12.45;;;;;;;;;;5053937;28;20025;-59
2022/03/28 08:06:16;;;;;;;18.15;10.95;;;;;;;;;;5053706;28;20074;-54
2022/03/28 08:08:42;;;;;;;21.92;11.57;;;;;;;;;;5053602;28;20090;-54
2022/03/28 08:11:09;;;;;;;20.20;11.82;;;;;;;;;;5053526;28;20504;-57
2022/03/28 08:13:35;;;;;;;20.55;11.73;;;;;;;;;;5053849;28;20107;-53
2022/03/28 08:16:01;;;;;;;20.85;12.30;;;;;;;;;;5053549;28;20539;-55
2022/03/28 08:18:28;;;;;;;19.33;11.40;;;;;;;;;;5053551;28;20033;-57
2022/03/28 08:20:54;;;;;;;19.35;10.45;;;;;;;;;;5053388;28;20017;-57
2022/03/28 08:23:21;;;;;;;16.02;10.35;;;;;;;;;;5054230;28;20108;-56
2022/03/28 08:25:50;;;;;;;17.73;10.57;;;;;;;;;;5053268;28;20082;-57
2022/03/28 08:28:16;;;;;;;22.50;10.40;;;;;;;;;;5052620;28;20473;-57
2022/03/28 08:30:44;;;;;;;17.33;10.57;;;;;;;;;;5053952;28;20029;-58
2022/03/28 08:33:10;;;;;;;16.58;10.10;;;;;;;;;;5053161;28;20113;-51
2022/03/28 08:35:37;;;;;;;17.15;10.00;;;;;;;;;;5051950;28;20032;-56
2022/03/28 08:38:04;;;;;;;20.50;10.45;;;;;;;;;;5053657;28;20028;-53
2022/03/28 08:40:30;;;;;;;14.70;8.30;;;;;;;;;;5052994;28;20474;-52
2022/03/28 08:42:57;;;;;;;15.10;8.95;;;;;;;;;;5053144;28;20036;-55
2022/03/28 08:45:23;;;;;;;12.82;8.45;;;;;;;;;;5054319;28;20092;-57
2022/03/28 08:47:50;;;;;;;16.30;7.95;;;;;;;;;;5053398;28;20365;-53
2022/03/28 08:50:17;;;;;;;12.20;7.47;;;;;;;;;;5051879;28;20025;-54
2022/03/28 08:52:43;;;;;;;10.35;6.55;;;;;;;;;;5053436;28;20029;-56
2022/03/28 08:55:10;;;;;;;12.13;6.40;;;;;;;;;;5053025;28;20033;-52
2022/03/28 08:57:37;;;;;;;9.70;6.53;;;;;;;;;;5052869;28;20425;-55
2022/03/28 09:00:07;;;;;;;13.75;6.28;;;;;;;;;;5054448;28;20020;-56
2022/03/28 09:02:42;;;;;;;12.07;6.97;;;;;;;;;;5057069;28;20028;-53
2022/03/28 09:05:11;;;;;;;13.65;6.63;;;;;;;;;;5057400;28;20032;-56
2022/03/28 09:07:37;;;;;;;11.10;5.57;;;;;;;;;;5057253;28;20032;-50
2022/03/28 09:10:06;;;;;;;12.05;6.15;;;;;;;;;;5056962;28;20029;-56
2022/03/28 09:12:33;;;;;;;9.68;5.82;;;;;;;;;;5057205;28;20036;-54
2022/03/28 09:15:02;;;;;;;12.95;6.20;;;;;;;;;;5056851;28;20122;-54
2022/03/28 09:17:28;;;;;;;8.88;6.05;;;;;;;;;;5057157;28;20033;-57
2022/03/28 09:20:00;;;;;;;9.88;5.78;;;;;;;;;;5056783;28;20104;-54
2022/03/28 09:22:28;;;;;;;14.05;6.53;;;;;;;;;;5056816;28;20053;-58
2022/03/28 09:24:58;;;;;;;15.00;6.85;;;;;;;;;;5056997;28;20036;-58
2022/03/28 09:27:28;;;;;;;19.17;7.30;;;;;;;;;;5056587;28;20049;-54
2022/03/28 09:30:15;;;;;;;12.68;6.43;;;;;;;;;;5057033;28;20037;-55
2022/03/28 09:32:46;;;;;;;16.50;7.85;;;;;;;;;;5056457;28;20055;-55
2022/03/28 09:35:19;;;;;;;13.75;5.40;;;;;;;;;;5057380;28;20455;-54
2022/03/28 09:37:56;;;;;;;10.15;5.80;;;;;;;;;;5056582;28;20095;-53
2022/03/28 09:40:23;;;;;;;12.57;5.93;;;;;;;;;;5056441;28;20029;-50
2022/03/28 09:42:49;;;;;;;11.27;6.25;;;;;;;;;;5056665;28;20063;-52
2022/03/28 09:45:19;;;;;;;7.25;4.55;;;;;;;;;;5056608;28;20032;-58
2022/03/28 09:47:55;;;;;;;17.13;5.78;;;;;;;;;;5056243;28;20025;-54
2022/03/28 09:50:27;;;;;;;7.57;5.85;;;;;;;;;;5056014;28;20025;-52
2022/03/28 09:52:53;;;;;;;7.07;5.30;;;;;;;;;;5055349;28;20028;-58
2022/03/28 09:55:19;;;;;;;12.60;5.32;;;;;;;;;;5055831;28;20066;-57
2022/03/28 09:57:45;;;;;;;7.13;5.03;;;;;;;;;;5056170;28;20028;-51
2022/03/28 10:00:13;;;;;;;10.05;4.72;;;;;;;;;;5056151;28;20021;-52
2022/03/28 10:02:39;;;;;;;11.43;5.63;;;;;;;;;;5055923;28;20031;-54
2022/03/28 10:05:06;;;;;;;8.90;5.45;;;;;;;;;;5056212;28;20024;-56
2022/03/28 10:07:33;;;;;;;12.65;5.40;;;;;;;;;;5054725;28;20390;-55
2022/03/28 10:10:00;;;;;;;9.43;5.07;;;;;;;;;;5055762;28;20029;-52
2022/03/28 10:12:26;;;;;;;8.15;5.25;;;;;;;;;;5054881;28;20107;-57
2022/03/28 10:14:57;;;;;;;13.45;5.20;;;;;;;;;;5056137;28;20028;-55
2022/03/28 10:17:24;;;;;;;8.70;4.97;;;;;;;;;;5055894;28;20096;-58
2022/03/28 10:19:50;;;;;;;10.70;4.60;;;;;;;;;;5055321;28;20028;-58
2022/03/28 10:22:18;;;;;;;10.80;4.57;;;;;;;;;;5055885;28;20025;-55
2022/03/28 10:24:46;;;;;;;11.13;4.85;;;;;;;;;;5055120;28;20074;-57
2022/03/28 10:27:13;;;;;;;9.32;5.00;;;;;;;;;;5054949;28;20051;-57
2022/03/28 10:29:40;;;;;;;12.85;5.47;;;;;;;;;;5055723;28;20025;-56
2022/03/28 10:32:09;;;;;;;15.57;5.55;;;;;;;;;;5055378;28;20032;-54
2022/03/28 10:34:38;;;;;;;8.15;4.30;;;;;;;;;;5055613;28;20028;-53
2022/03/28 10:37:23;;;;;;;12.45;5.30;;;;;;;;;;5055368;28;20025;-55
2022/03/28 10:39:49;;;;;;;11.38;5.32;;;;;;;;;;5055637;28;20029;-57
2022/03/28 10:42:23;;;;;;;9.55;5.10;;;;;;;;;;5054986;28;20023;-55
2022/03/28 10:45:01;;;;;;;13.45;5.40;;;;;;;;;;5054205;28;20017;-55
2022/03/28 10:47:45;;;;;;;8.82;5.68;;;;;;;;;;5054685;28;20032;-57
2022/03/28 10:50:17;;;;;;;8.25;5.28;;;;;;;;;;5055605;28;20028;-54
2022/03/28 10:53:03;;;;;;;10.55;5.18;;;;;;;;;;5054447;28;20504;-54
2022/03/28 10:55:44;;;;;;;11.02;5.70;;;;;;;;;;5054789;28;20083;-59
2022/03/28 10:58:14;;;;;;;9.63;5.72;;;;;;;;;;5055800;28;20036;-55
2022/03/28 11:01:00;;;;;;;10.35;5.55;;;;;;;;;;5054960;28;20023;-56
2022/03/28 11:03:39;;;;;;;12.85;6.20;;;;;;;;;;5054449;28;20027;-55
2022/03/28 11:06:06;;;;;;;12.25;5.53;;;;;;;;;;5055483;28;20025;-56
2022/03/28 11:08:33;;;;;;;8.73;5.32;;;;;;;;;;5054706;28;20040;-52
2022/03/28 11:11:19;;;;;;;7.90;5.15;;;;;;;;;;5054696;28;20055;-54
2022/03/28 11:13:58;;;;;;;7.78;4.85;;;;;;;;;;5055008;28;20017;-56
2022/03/28 11:16:44;;;;;;;13.82;5.20;;;;;;;;;;5054527;28;20025;-56
2022/03/28 11:19:21;;;;;;;8.52;5.40;;;;;;;;;;5054007;28;20116;-57
2022/03/28 11:22:06;;;;;;;9.13;5.28;;;;;;;;;;5054840;28;20021;-56
2022/03/28 11:24:52;;;;;;;9.52;5.10;;;;;;;;;;5054696;28;20532;-50
2022/03/28 11:27:19;;;;;;;6.75;5.20;;;;;;;;;;5055880;28;20482;-52
2022/03/28 11:29:46;;;;;;;8.50;5.65;;;;;;;;;;5054767;28;20043;-53
2022/03/28 11:32:19;;;;;;;8.25;4.95;;;;;;;;;;5053659;28;20028;-50
2022/03/28 11:34:52;;;;;;;10.10;5.30;;;;;;;;;;5055037;28;20044;-54
2022/03/28 11:37:27;;;;;;;9.20;5.30;;;;;;;;;;5054190;28;20434;-56
2022/03/28 11:39:56;;;;;;;7.93;5.03;;;;;;;;;;5054644;28;20074;-53
2022/03/28 11:42:23;;;;;;;8.02;5.13;;;;;;;;;;5054324;28;20024;-57
2022/03/28 11:44:49;;;;;;;10.95;5.65;;;;;;;;;;5054085;28;20032;-59
2022/03/28 11:47:17;;;;;;;16.77;5.70;;;;;;;;;;5053994;28;20017;-59
2022/03/28 11:49:59;;;;;;;7.18;5.15;;;;;;;;;;5054711;28;20109;-59
2022/03/28 11:52:26;;;;;;;8.20;4.93;;;;;;;;;;5052763;28;20029;-60
2022/03/28 11:54:55;;;;;;;6.68;5.13;;;;;;;;;;5052690;28;20036;-57
2022/03/28 12:00:20;;;;;;;6.72;5.15;;;;;;;;;;5053896;28;20156;-55
2022/03/28 12:02:51;;;;;;;7.32;5.03;;;;;;;;;;5054256;28;20035;-58
2022/03/28 12:05:26;;;;;;;7.40;4.95;;;;;;;;;;5053643;28;20033;-53
2022/03/28 12:07:52;;;;;;;8.15;4.68;;;;;;;;;;5053934;28;20156;-58
2022/03/28 12:10:22;;;;;;;13.07;5.35;;;;;;;;;;5053304;28;20035;-56
2022/03/28 12:12:49;;;;;;;10.55;5.40;;;;;;;;;;5053870;28;20036;-61
2022/03/28 12:15:27;;;;;;;8.50;5.50;;;;;;;;;;5053573;28;20028;-57
2022/03/28 12:17:58;;;;;;;7.10;4.93;;;;;;;;;;5052939;28;20048;-54
2022/03/28 12:20:26;;;;;;;12.52;5.80;;;;;;;;;;5051584;28;20028;-54
2022/03/28 12:22:53;;;;;;;9.45;5.43;;;;;;;;;;5051549;28;20017;-56
2022/03/28 12:25:23;;;;;;;7.45;5.15;;;;;;;;;;5051930;28;20036;-61
2022/03/28 12:27:53;;;;;;;7.40;5.60;;;;;;;;;;5053580;28;20048;-58
2022/03/28 12:30:23;;;;;;;9.32;6.35;;;;;;;;;;5053775;28;20250;-56
2022/03/28 12:32:49;;;;;;;9.90;5.00;;;;;;;;;;5053002;28;20017;-57
2022/03/28 12:35:17;;;;;;;7.85;4.88;;;;;;;;;;5052949;28;20036;-54
2022/03/28 12:37:43;;;;;;;10.18;5.68;;;;;;;;;;5053924;28;20028;-53
2022/03/28 12:40:12;;;;;;;9.27;5.45;;;;;;;;;;5052922;28;20024;-58
2022/03/28 12:42:43;;;;;;;8.68;5.68;;;;;;;;;;5053365;28;20114;-59
2022/03/28 12:45:12;;;;;;;10.77;5.40;;;;;;;;;;5053166;28;20032;-55
2022/03/28 12:47:40;;;;;;;8.65;4.90;;;;;;;;;;5051269;28;20025;-58
2022/03/28 12:50:08;;;;;;;9.77;5.45;;;;;;;;;;5052625;28;20020;-57
2022/03/28 12:52:36;;;;;;;8.68;4.80;;;;;;;;;;5052698;28;20476;-56
2022/03/28 12:55:04;;;;;;;8.25;5.30;;;;;;;;;;5051939;28;20025;-58
2022/03/28 12:57:33;;;;;;;8.70;4.60;;;;;;;;;;5052117;28;20025;-51
2022/03/28 12:59:59;;;;;;;7.45;4.53;;;;;;;;;;5053430;28;20029;-56
2022/03/28 13:02:25;;;;;;;8.55;4.70;;;;;;;;;;5053050;28;20074;-55
2022/03/28 13:05:00;;;;;;;7.63;4.75;;;;;;;;;;5053271;28;20032;-55
2022/03/28 13:07:32;;;;;;;10.63;5.20;;;;;;;;;;5052857;28;20433;-57
2022/03/28 13:10:06;;;;;;;11.45;5.93;;;;;;;;;;5053010;28;20520;-57
2022/03/28 13:12:40;;;;;;;11.05;5.35;;;;;;;;;;5053275;28;20347;-54
2022/03/28 13:15:09;;;;;;;10.15;5.78;;;;;;;;;;5052934;28;20021;-59
2022/03/28 13:17:35;;;;;;;8.82;5.50;;;;;;;;;;5052787;28;20382;-58
2022/03/28 13:20:03;;;;;;;10.85;6.00;;;;;;;;;;5053196;28;20025;-49
2022/03/28 13:22:40;;;;;;;14.45;6.75;;;;;;;;;;5052800;28;20127;-58
2022/03/28 13:25:10;;;;;;;10.85;5.57;;;;;;;;;;5053109;28;20025;-54
2022/03/28 13:30:24;;;;;;;13.55;6.75;;;;;;;;;;5052814;28;20039;-56
2022/03/28 13:32:50;;;;;;;14.45;6.93;;;;;;;;;;5052995;28;20441;-57
2022/03/28 13:35:17;;;;;;;9.82;6.72;;;;;;;;;;5052518;28;20021;-57
2022/03/28 13:37:53;;;;;;;10.13;7.72;;;;;;;;;;5053525;28;20432;-54
2022/03/28 13:40:19;;;;;;;36.58;22.23;;;;;;;;;;5053329;28;20021;-57
2022/03/28 13:42:46;;;;;;;46.95;28.52;;;;;;;;;;5052710;28;20025;-56
2022/03/28 13:45:12;;;;;;;20.13;11.60;;;;;;;;;;5052815;28;20462;-59
2022/03/28 13:47:39;;;;;;;21.05;12.20;;;;;;;;;;5054699;28;20031;-57
2022/03/28 13:50:05;;;;;;;11.65;6.82;;;;;;;;;;5055837;28;20474;-56
2022/03/28 13:52:32;;;;;;;10.10;6.53;;;;;;;;;;5056515;28;20119;-56
2022/03/28 13:54:58;;;;;;;13.88;6.68;;;;;;;;;;5056416;28;20021;-58
2022/03/28 13:57:26;;;;;;;8.38;6.45;;;;;;;;;;5056055;28;20029;-55
2022/03/28 13:59:53;;;;;;;12.02;6.32;;;;;;;;;;5056182;28;20028;-56
2022/03/28 14:02:19;;;;;;;14.68;6.45;;;;;;;;;;5056156;28;20021;-55
2022/03/28 14:04:48;;;;;;;9.93;6.22;;;;;;;;;;5055756;28;20036;-55
2022/03/28 14:07:14;;;;;;;11.27;6.30;;;;;;;;;;5054399;28;20031;-57
2022/03/28 14:09:41;;;;;;;11.60;7.47;;;;;;;;;;5039325;28;20057;-56
2022/03/28 14:12:07;;;;;;;9.75;6.88;;;;;;;;;;5051365;28;20024;-54
2022/03/28 14:14:35;;;;;;;12.07;6.63;;;;;;;;;;5048289;28;20075;-56
2022/03/28 14:17:02;;;;;;;13.23;7.50;;;;;;;;;;5035257;28;20116;-57
2022/03/28 14:19:29;;;;;;;13.88;8.13;;;;;;;;;;5035390;28;20036;-53
2022/03/28 14:21:55;;;;;;;16.30;8.70;;;;;;;;;;5043810;28;20116;-57
2022/03/28 14:24:22;;;;;;;12.73;6.50;;;;;;;;;;5055300;28;20040;-56
2022/03/28 14:26:48;;;;;;;14.70;6.90;;;;;;;;;;5037488;28;20541;-53
2022/03/28 14:29:14;;;;;;;13.57;6.35;;;;;;;;;;5035574;28;20467;-52
2022/03/28 14:31:41;;;;;;;8.98;5.63;;;;;;;;;;5035996;28;20540;-50
2022/03/28 14:34:07;;;;;;;10.35;7.05;;;;;;;;;;5035829;28;20017;-56
2022/03/28 14:36:33;;;;;;;19.15;9.70;;;;;;;;;;5035764;28;20017;-57
2022/03/28 14:38:59;;;;;;;15.88;8.15;;;;;;;;;;5035143;28;20104;-52